sensor_id;sensor_type;location;lat;lon;timestamp;pressure;altitude;pressure_sealevel;temperature;humidity
77227;BME280;66234;47.642;19.144;2023-04-01T00:01:45;98897.53;;;9.71;80.31
77227;BME280;66234;47.642;19.144;2023-04-01T00:04:48;98905.19;;;9.67;82.87
77227;BME280;66234;47.642;19.144;2023-04-01T00:07:50;98907.19;;;9.60;83.21
77227;BME280;66234;47.642;19.144;2023-04-01T00:10:53;98908.66;;;9.56;84.21
77227;BME280;66234;47.642;19.144;2023-04-01T00:13:56;98898.94;;;9.50;84.03
77227;BME280;66234;47.642;19.144;2023-04-01T00:16:59;98901.16;;;9.42;84.30
77227;BME280;66234;47.642;19.144;2023-04-01T00:20:02;98914.50;;;9.42;83.82
77227;BME280;66234;47.642;19.144;2023-04-01T00:23:05;98909.94;;;9.42;83.11
77227;BME280;66234;47.642;19.144;2023-04-01T00:26:08;98912.16;;;9.45;81.89
77227;BME280;66234;47.642;19.144;2023-04-01T00:29:12;98914.84;;;9.57;81.76
77227;BME280;66234;47.642;19.144;2023-04-01T00:32:15;98915.41;;;9.59;80.78
77227;BME280;66234;47.642;19.144;2023-04-01T00:35:17;98911.47;;;9.61;80.29
77227;BME280;66234;47.642;19.144;2023-04-01T00:38:20;98902.84;;;9.82;78.53
77227;BME280;66234;47.642;19.144;2023-04-01T00:41:23;98908.59;;;10.02;76.30
77227;BME280;66234;47.642;19.144;2023-04-01T00:44:31;98912.59;;;10.12;76.87
77227;BME280;66234;47.642;19.144;2023-04-01T00:47:35;98913.38;;;10.12;76.87
77227;BME280;66234;47.642;19.144;2023-04-01T00:50:39;98906.19;;;10.13;76.36
77227;BME280;66234;47.642;19.144;2023-04-01T00:53:45;98902.13;;;10.10;76.93
77227;BME280;66234;47.642;19.144;2023-04-01T00:56:59;98903.03;;;10.04;76.70
77227;BME280;66234;47.642;19.144;2023-04-01T01:00:05;98901.88;;;10.00;77.52
77227;BME280;66234;47.642;19.144;2023-04-01T01:03:09;98892.81;;;10.01;76.59
77227;BME280;66234;47.642;19.144;2023-04-01T01:16:06;98895.41;;;9.84;78.58
77227;BME280;66234;47.642;19.144;2023-04-01T01:19:57;98887.66;;;9.83;78.51
77227;BME280;66234;47.642;19.144;2023-04-01T01:27:12;98888.13;;;9.80;78.57
77227;BME280;66234;47.642;19.144;2023-04-01T01:34:15;98892.06;;;9.77;78.78
77227;BME280;66234;47.642;19.144;2023-04-01T01:37:25;98889.16;;;9.79;78.92
77227;BME280;66234;47.642;19.144;2023-04-01T01:40:31;98887.88;;;9.81;78.55
77227;BME280;66234;47.642;19.144;2023-04-01T01:43:46;98884.75;;;9.84;78.67
77227;BME280;66234;47.642;19.144;2023-04-01T01:46:51;98882.19;;;9.89;78.33
77227;BME280;66234;47.642;19.144;2023-04-01T01:49:54;98888.19;;;9.96;77.28
77227;BME280;66234;47.642;19.144;2023-04-01T01:53:11;98881.91;;;10.02;77.30
77227;BME280;66234;47.642;19.144;2023-04-01T01:56:17;98883.06;;;10.07;77.29
77227;BME280;66234;47.642;19.144;2023-04-01T01:59:22;98890.41;;;10.11;76.72
77227;BME280;66234;47.642;19.144;2023-04-01T02:02:28;98885.63;;;10.13;76.06
77227;BME280;66234;47.642;19.144;2023-04-01T02:05:34;98870.16;;;10.15;76.41
77227;BME280;66234;47.642;19.144;2023-04-01T02:09:03;98884.44;;;10.21;75.24
77227;BME280;66234;47.642;19.144;2023-04-01T02:12:08;98882.34;;;10.23;75.07
77227;BME280;66234;47.642;19.144;2023-04-01T02:15:16;98880.47;;;10.23;75.91
77227;BME280;66234;47.642;19.144;2023-04-01T02:18:22;98877.47;;;10.20;75.26
77227;BME280;66234;47.642;19.144;2023-04-01T02:21:27;98872.56;;;10.28;74.13
77227;BME280;66234;47.642;19.144;2023-04-01T02:24:35;98878.75;;;10.29;74.23
77227;BME280;66234;47.642;19.144;2023-04-01T02:27:43;98873.63;;;10.27;74.15
77227;BME280;66234;47.642;19.144;2023-04-01T02:30:46;98874.91;;;10.25;74.35
77227;BME280;66234;47.642;19.144;2023-04-01T02:33:50;98878.63;;;10.24;74.52
77227;BME280;66234;47.642;19.144;2023-04-01T02:36:55;98868.44;;;10.21;74.53
77227;BME280;66234;47.642;19.144;2023-04-01T02:40:04;98865.41;;;10.05;75.26
77227;BME280;66234;47.642;19.144;2023-04-01T02:43:08;98870.56;;;9.95;75.44
77227;BME280;66234;47.642;19.144;2023-04-01T02:46:11;98864.63;;;9.93;75.08
77227;BME280;66234;47.642;19.144;2023-04-01T02:49:13;98861.97;;;9.93;74.41
77227;BME280;66234;47.642;19.144;2023-04-01T02:52:16;98864.09;;;9.91;74.58
77227;BME280;66234;47.642;19.144;2023-04-01T02:55:19;98858.75;;;9.91;74.20
77227;BME280;66234;47.642;19.144;2023-04-01T02:58:21;98853.41;;;9.91;73.81
77227;BME280;66234;47.642;19.144;2023-04-01T03:01:24;98856.75;;;9.87;74.17
77227;BME280;66234;47.642;19.144;2023-04-01T03:04:27;98864.88;;;9.92;74.32
77227;BME280;66234;47.642;19.144;2023-04-01T03:07:30;98865.22;;;9.95;73.78
77227;BME280;66234;47.642;19.144;2023-04-01T03:10:32;98870.19;;;10.03;72.98
77227;BME280;66234;47.642;19.144;2023-04-01T03:13:35;98877.94;;;10.17;72.50
77227;BME280;66234;47.642;19.144;2023-04-01T03:16:38;98875.75;;;10.14;73.02
77227;BME280;66234;47.642;19.144;2023-04-01T03:19:41;98868.78;;;10.13;71.91
77227;BME280;66234;47.642;19.144;2023-04-01T03:22:45;98864.16;;;10.08;71.88
77227;BME280;66234;47.642;19.144;2023-04-01T03:25:49;98864.38;;;10.07;72.07
77227;BME280;66234;47.642;19.144;2023-04-01T03:28:52;98858.75;;;9.91;72.80
77227;BME280;66234;47.642;19.144;2023-04-01T03:31:55;98860.47;;;9.97;70.87
77227;BME280;66234;47.642;19.144;2023-04-01T03:35:00;98866.50;;;9.93;71.66
77227;BME280;66234;47.642;19.144;2023-04-01T03:38:02;98877.84;;;10.00;70.83
77227;BME280;66234;47.642;19.144;2023-04-01T03:41:05;98882.53;;;9.93;71.91
77227;BME280;66234;47.642;19.144;2023-04-01T03:44:08;98882.53;;;9.81;72.49
77227;BME280;66234;47.642;19.144;2023-04-01T03:47:11;98890.78;;;9.80;72.37
77227;BME280;66234;47.642;19.144;2023-04-01T03:50:13;98888.69;;;9.82;72.81
77227;BME280;66234;47.642;19.144;2023-04-01T03:53:17;98896.91;;;9.92;72.67
77227;BME280;66234;47.642;19.144;2023-04-01T03:56:21;98907.81;;;9.90;72.42
77227;BME280;66234;47.642;19.144;2023-04-01T03:59:24;98895.28;;;9.91;71.98
77227;BME280;66234;47.642;19.144;2023-04-01T04:02:27;98903.06;;;9.92;71.35
77227;BME280;66234;47.642;19.144;2023-04-01T04:05:30;98901.81;;;9.83;72.22
77227;BME280;66234;47.642;19.144;2023-04-01T04:08:33;98907.94;;;9.95;70.92
77227;BME280;66234;47.642;19.144;2023-04-01T04:11:36;98909.34;;;9.86;71.92
77227;BME280;66234;47.642;19.144;2023-04-01T04:14:39;98911.00;;;9.76;72.30
77227;BME280;66234;47.642;19.144;2023-04-01T04:17:44;98920.84;;;9.64;73.35
77227;BME280;66234;47.642;19.144;2023-04-01T04:20:48;98918.06;;;9.47;73.81
77227;BME280;66234;47.642;19.144;2023-04-01T04:23:54;98920.41;;;9.32;74.76
77227;BME280;66234;47.642;19.144;2023-04-01T04:26:57;98913.19;;;9.33;74.09
77227;BME280;66234;47.642;19.144;2023-04-01T04:30:00;98913.53;;;9.36;74.27
77227;BME280;66234;47.642;19.144;2023-04-01T04:33:05;98915.63;;;9.23;75.11
77227;BME280;66234;47.642;19.144;2023-04-01T04:36:07;98917.94;;;9.19;74.74
77227;BME280;66234;47.642;19.144;2023-04-01T04:39:10;98918.63;;;9.15;74.85
77227;BME280;66234;47.642;19.144;2023-04-01T04:42:14;98907.59;;;9.11;75.17
77227;BME280;66234;47.642;19.144;2023-04-01T04:45:18;98903.88;;;9.01;75.93
77227;BME280;66234;47.642;19.144;2023-04-01T04:48:28;98902.59;;;8.92;77.36
77227;BME280;66234;47.642;19.144;2023-04-01T04:51:31;98902.69;;;8.85;76.71
77227;BME280;66234;47.642;19.144;2023-04-01T04:54:36;98909.53;;;8.93;76.13
77227;BME280;66234;47.642;19.144;2023-04-01T04:57:39;98910.50;;;8.98;75.72
77227;BME280;66234;47.642;19.144;2023-04-01T05:00:42;98906.78;;;8.99;75.15
77227;BME280;66234;47.642;19.144;2023-04-01T05:03:53;98906.59;;;9.12;74.95
77227;BME280;66234;47.642;19.144;2023-04-01T05:06:55;98901.59;;;9.16;74.36
77227;BME280;66234;47.642;19.144;2023-04-01T05:09:58;98897.91;;;9.17;74.27
77227;BME280;66234;47.642;19.144;2023-04-01T05:13:02;98906.34;;;9.25;73.53
77227;BME280;66234;47.642;19.144;2023-04-01T05:16:08;98908.22;;;9.36;73.99
77227;BME280;66234;47.642;19.144;2023-04-01T05:19:12;98907.28;;;9.42;73.54
77227;BME280;66234;47.642;19.144;2023-04-01T05:22:14;98910.53;;;9.44;73.08
77227;BME280;66234;47.642;19.144;2023-04-01T05:25:18;98919.69;;;9.48;73.49
77227;BME280;66234;47.642;19.144;2023-04-01T05:28:20;98914.13;;;9.50;72.74
77227;BME280;66234;47.642;19.144;2023-04-01T05:31:23;98909.38;;;9.52;73.87
77227;BME280;66234;47.642;19.144;2023-04-01T05:34:27;98912.53;;;9.60;73.16
77227;BME280;66234;47.642;19.144;2023-04-01T05:37:30;98914.25;;;9.66;71.54
77227;BME280;66234;47.642;19.144;2023-04-01T05:40:37;98911.22;;;9.74;72.51
77227;BME280;66234;47.642;19.144;2023-04-01T05:43:41;98906.56;;;9.81;72.35
77227;BME280;66234;47.642;19.144;2023-04-01T05:47:19;98916.41;;;9.92;71.64
77227;BME280;66234;47.642;19.144;2023-04-01T05:50:23;98916.78;;;9.96;71.26
77227;BME280;66234;47.642;19.144;2023-04-01T05:53:26;98920.09;;;10.03;71.27
77227;BME280;66234;47.642;19.144;2023-04-01T05:56:28;98923.50;;;10.10;70.64
77227;BME280;66234;47.642;19.144;2023-04-01T05:59:31;98922.78;;;10.15;70.05
77227;BME280;66234;47.642;19.144;2023-04-01T06:02:34;98911.72;;;10.23;69.71
77227;BME280;66234;47.642;19.144;2023-04-01T06:05:42;98908.91;;;10.29;70.65
77227;BME280;66234;47.642;19.144;2023-04-01T06:08:45;98912.03;;;10.38;70.06
77227;BME280;66234;47.642;19.144;2023-04-01T06:29:05;98916.88;;;11.30;64.64
77227;BME280;66234;47.642;19.144;2023-04-01T06:32:19;98912.09;;;11.32;65.02
77227;BME280;66234;47.642;19.144;2023-04-01T06:35:38;98918.06;;;11.39;63.78
77227;BME280;66234;47.642;19.144;2023-04-01T06:49:44;98920.91;;;11.49;64.40
77227;BME280;66234;47.642;19.144;2023-04-01T06:56:41;98930.56;;;11.67;62.95
77227;BME280;66234;47.642;19.144;2023-04-01T06:59:50;98920.44;;;11.69;62.06
77227;BME280;66234;47.642;19.144;2023-04-01T07:03:05;98947.34;;;11.62;62.06
77227;BME280;66234;47.642;19.144;2023-04-01T07:06:14;98929.66;;;11.78;61.75
77227;BME280;66234;47.642;19.144;2023-04-01T07:09:37;98938.22;;;11.96;61.88
77227;BME280;66234;47.642;19.144;2023-04-01T07:13:04;98932.84;;;11.96;60.85
77227;BME280;66234;47.642;19.144;2023-04-01T07:16:20;98941.84;;;12.07;60.94
77227;BME280;66234;47.642;19.144;2023-04-01T07:19:30;98928.56;;;11.95;61.25
77227;BME280;66234;47.642;19.144;2023-04-01T07:22:50;98930.34;;;12.28;60.01
77227;BME280;66234;47.642;19.144;2023-04-01T07:26:19;98924.56;;;12.41;59.26
77227;BME280;66234;47.642;19.144;2023-04-01T07:29:44;98924.50;;;12.57;59.28
77227;BME280;66234;47.642;19.144;2023-04-01T07:36:04;98928.75;;;12.80;58.53
77227;BME280;66234;47.642;19.144;2023-04-01T08:06:22;98944.22;;;12.46;58.83
77227;BME280;66234;47.642;19.144;2023-04-01T08:13:54;98922.94;;;12.61;58.86
77227;BME280;66234;47.642;19.144;2023-04-01T08:21:22;98939.59;;;12.90;57.69
77227;BME280;66234;47.642;19.144;2023-04-01T08:24:37;98939.81;;;12.83;59.14
77227;BME280;66234;47.642;19.144;2023-04-01T08:31:18;98958.88;;;13.13;57.21
77227;BME280;66234;47.642;19.144;2023-04-01T08:34:30;98934.72;;;13.13;57.05
77227;BME280;66234;47.642;19.144;2023-04-01T08:37:39;98947.03;;;13.36;55.99
77227;BME280;66234;47.642;19.144;2023-04-01T08:41:33;98944.44;;;13.14;57.07
77227;BME280;66234;47.642;19.144;2023-04-01T08:45:05;98938.56;;;13.54;56.38
77227;BME280;66234;47.642;19.144;2023-04-01T08:51:56;98953.78;;;13.80;56.66
77227;BME280;66234;47.642;19.144;2023-04-01T09:02:46;98944.53;;;13.30;56.91
77227;BME280;66234;47.642;19.144;2023-04-01T09:13:12;98944.13;;;13.43;56.78
77227;BME280;66234;47.642;19.144;2023-04-01T09:16:24;98945.91;;;13.32;56.96
77227;BME280;66234;47.642;19.144;2023-04-01T09:19:37;98946.03;;;13.47;57.34
77227;BME280;66234;47.642;19.144;2023-04-01T09:24:06;98939.22;;;13.71;56.58
77227;BME280;66234;47.642;19.144;2023-04-01T09:33:22;98932.91;;;13.97;55.87
77227;BME280;66234;47.642;19.144;2023-04-01T09:53:32;98950.88;;;13.87;55.75
77227;BME280;66234;47.642;19.144;2023-04-01T10:01:27;98941.91;;;13.71;56.36
77227;BME280;66234;47.642;19.144;2023-04-01T10:21:26;98950.00;;;13.40;58.30
77227;BME280;66234;47.642;19.144;2023-04-01T10:35:20;98961.06;;;13.48;57.85
77227;BME280;66234;47.642;19.144;2023-04-01T10:53:03;98962.75;;;13.23;59.68
77227;BME280;66234;47.642;19.144;2023-04-01T10:56:50;98957.72;;;13.04;60.12
77227;BME280;66234;47.642;19.144;2023-04-01T11:18:09;98945.47;;;14.28;55.47
77227;BME280;66234;47.642;19.144;2023-04-01T11:21:28;98941.53;;;13.99;56.55
77227;BME280;66234;47.642;19.144;2023-04-01T11:46:21;98952.25;;;14.41;54.12
77227;BME280;66234;47.642;19.144;2023-04-01T11:49:50;98959.88;;;14.64;54.54
77227;BME280;66234;47.642;19.144;2023-04-01T11:56:38;98944.78;;;14.58;53.49
77227;BME280;66234;47.642;19.144;2023-04-01T12:03:10;98951.31;;;14.77;52.71
77227;BME280;66234;47.642;19.144;2023-04-01T12:06:30;98944.91;;;15.13;51.53
77227;BME280;66234;47.642;19.144;2023-04-01T12:20:02;98950.59;;;15.52;50.34
77227;BME280;66234;47.642;19.144;2023-04-01T12:23:36;98956.00;;;15.47;48.86
77227;BME280;66234;47.642;19.144;2023-04-01T12:47:55;98944.00;;;16.87;44.50
77227;BME280;66234;47.642;19.144;2023-04-01T13:08:55;98923.84;;;18.51;39.51
77227;BME280;66234;47.642;19.144;2023-04-01T13:21:41;98926.50;;;18.32;39.85
77227;BME280;66234;47.642;19.144;2023-04-01T13:25:10;98939.31;;;18.69;38.64
77227;BME280;66234;47.642;19.144;2023-04-01T13:28:26;98921.41;;;18.91;38.19
77227;BME280;66234;47.642;19.144;2023-04-01T13:35:03;98916.97;;;20.24;36.34
77227;BME280;66234;47.642;19.144;2023-04-01T13:45:21;98931.06;;;18.79;38.55
77227;BME280;66234;47.642;19.144;2023-04-01T13:48:51;98933.34;;;19.27;38.06
77227;BME280;66234;47.642;19.144;2023-04-01T13:56:33;98934.97;;;17.40;41.35
77227;BME280;66234;47.642;19.144;2023-04-01T14:16:10;98927.09;;;18.53;39.74
77227;BME280;66234;47.642;19.144;2023-04-01T14:20:02;98939.09;;;17.66;41.37
77227;BME280;66234;47.642;19.144;2023-04-01T14:30:15;98923.03;;;18.50;40.48
77227;BME280;66234;47.642;19.144;2023-04-01T14:40:26;98924.88;;;17.84;40.55
77227;BME280;66234;47.642;19.144;2023-04-01T14:50:20;98930.50;;;18.16;39.71
77227;BME280;66234;47.642;19.144;2023-04-01T14:53:29;98925.88;;;17.31;41.77
77227;BME280;66234;47.642;19.144;2023-04-01T14:56:39;98943.56;;;16.65;42.69
77227;BME280;66234;47.642;19.144;2023-04-01T14:59:51;98936.09;;;16.52;43.23
77227;BME280;66234;47.642;19.144;2023-04-01T15:03:02;98935.34;;;16.31;44.32
77227;BME280;66234;47.642;19.144;2023-04-01T15:09:41;98934.50;;;16.35;44.23
77227;BME280;66234;47.642;19.144;2023-04-01T15:13:13;98936.16;;;16.31;44.40
77227;BME280;66234;47.642;19.144;2023-04-01T15:32:56;98950.59;;;16.71;46.31
77227;BME280;66234;47.642;19.144;2023-04-01T15:36:20;98952.28;;;16.57;46.07
77227;BME280;66234;47.642;19.144;2023-04-01T15:39:37;98946.13;;;16.26;46.04
77227;BME280;66234;47.642;19.144;2023-04-01T15:43:16;98951.66;;;15.71;47.13
77227;BME280;66234;47.642;19.144;2023-04-01T15:46:46;98950.84;;;15.80;47.21
77227;BME280;66234;47.642;19.144;2023-04-01T15:49:57;98966.75;;;15.72;48.29
77227;BME280;66234;47.642;19.144;2023-04-01T15:53:24;98962.19;;;15.62;47.10
77227;BME280;66234;47.642;19.144;2023-04-01T15:56:54;98967.03;;;15.55;47.36
77227;BME280;66234;47.642;19.144;2023-04-01T16:03:39;98974.00;;;15.31;47.44
77227;BME280;66234;47.642;19.144;2023-04-01T16:20:20;98992.56;;;16.13;47.04
77227;BME280;66234;47.642;19.144;2023-04-01T16:23:35;98989.44;;;16.65;44.98
77227;BME280;66234;47.642;19.144;2023-04-01T16:26:47;98985.31;;;17.31;43.54
77227;BME280;66234;47.642;19.144;2023-04-01T16:37:05;99009.59;;;15.88;45.65
77227;BME280;66234;47.642;19.144;2023-04-01T16:43:19;99006.09;;;15.43;47.89
77227;BME280;66234;47.642;19.144;2023-04-01T16:46:46;99011.22;;;15.44;48.49
77227;BME280;66234;47.642;19.144;2023-04-01T16:49:58;99007.66;;;15.34;48.90
77227;BME280;66234;47.642;19.144;2023-04-01T16:53:09;99003.06;;;15.09;47.90
77227;BME280;66234;47.642;19.144;2023-04-01T16:56:24;99015.34;;;14.75;48.83
77227;BME280;66234;47.642;19.144;2023-04-01T16:59:40;99015.88;;;14.82;50.16
77227;BME280;66234;47.642;19.144;2023-04-01T17:03:38;99015.34;;;14.75;49.87
77227;BME280;66234;47.642;19.144;2023-04-01T17:16:14;99031.44;;;14.18;50.67
77227;BME280;66234;47.642;19.144;2023-04-01T17:36:44;99040.66;;;13.59;51.08
77227;BME280;66234;47.642;19.144;2023-04-01T17:40:05;99039.25;;;13.52;51.12
77227;BME280;66234;47.642;19.144;2023-04-01T17:43:58;99049.25;;;13.30;52.34
77227;BME280;66234;47.642;19.144;2023-04-01T17:50:30;99048.19;;;13.04;53.64
77227;BME280;66234;47.642;19.144;2023-04-01T17:53:50;99052.41;;;13.00;53.39
77227;BME280;66234;47.642;19.144;2023-04-01T18:06:29;99060.69;;;12.77;53.89
77227;BME280;66234;47.642;19.144;2023-04-01T18:25:50;99096.41;;;12.61;54.55
77227;BME280;66234;47.642;19.144;2023-04-01T18:28:59;99097.41;;;12.55;54.95
77227;BME280;66234;47.642;19.144;2023-04-01T18:32:15;99099.84;;;12.56;55.36
77227;BME280;66234;47.642;19.144;2023-04-01T18:35:58;99098.47;;;12.54;54.92
77227;BME280;66234;47.642;19.144;2023-04-01T18:39:34;99103.75;;;12.49;54.92
77227;BME280;66234;47.642;19.144;2023-04-01T18:46:02;99102.19;;;12.31;55.50
77227;BME280;66234;47.642;19.144;2023-04-01T18:49:39;99102.19;;;12.31;55.92
77227;BME280;66234;47.642;19.144;2023-04-01T18:52:44;99109.66;;;12.29;55.52
77227;BME280;66234;47.642;19.144;2023-04-01T18:55:56;99108.50;;;12.25;55.87
77227;BME280;66234;47.642;19.144;2023-04-01T19:02:31;99111.91;;;12.21;56.32
77227;BME280;66234;47.642;19.144;2023-04-01T19:05:39;99114.06;;;12.19;56.41
77227;BME280;66234;47.642;19.144;2023-04-01T19:08:44;99112.41;;;12.18;56.53
77227;BME280;66234;47.642;19.144;2023-04-01T19:28:55;99119.56;;;12.12;56.48
77227;BME280;66234;47.642;19.144;2023-04-01T19:32:22;99119.56;;;12.12;56.38
77227;BME280;66234;47.642;19.144;2023-04-01T19:52:23;99150.91;;;11.95;57.68
77227;BME280;66234;47.642;19.144;2023-04-01T19:55:42;99144.56;;;11.85;58.28
77227;BME280;66234;47.642;19.144;2023-04-01T19:58:56;99139.84;;;11.75;58.23
77227;BME280;66234;47.642;19.144;2023-04-01T20:09:14;99141.28;;;11.66;58.83
77227;BME280;66234;47.642;19.144;2023-04-01T20:12:31;99145.84;;;11.54;59.88
77227;BME280;66234;47.642;19.144;2023-04-01T20:15:41;99139.22;;;11.56;59.64
77227;BME280;66234;47.642;19.144;2023-04-01T20:18:52;99145.38;;;11.57;59.65
77227;BME280;66234;47.642;19.144;2023-04-01T20:22:00;99147.25;;;11.56;59.67
77227;BME280;66234;47.642;19.144;2023-04-01T20:28:32;99144.28;;;11.41;60.18
77227;BME280;66234;47.642;19.144;2023-04-01T20:31:44;99144.56;;;11.28;60.49
77227;BME280;66234;47.642;19.144;2023-04-01T20:38:53;99152.88;;;11.04;61.59
77227;BME280;66234;47.642;19.144;2023-04-01T20:42:04;99153.13;;;10.91;62.25
77227;BME280;66234;47.642;19.144;2023-04-01T20:45:35;99159.22;;;10.75;64.66
77227;BME280;66234;47.642;19.144;2023-04-01T20:49:00;99162.59;;;10.59;66.52
77227;BME280;66234;47.642;19.144;2023-04-01T20:55:30;99165.25;;;10.24;68.27
77227;BME280;66234;47.642;19.144;2023-04-01T21:08:53;99173.38;;;9.76;70.19
77227;BME280;66234;47.642;19.144;2023-04-01T21:15:46;99177.28;;;9.62;71.91
77227;BME280;66234;47.642;19.144;2023-04-01T21:25:50;99183.56;;;9.38;72.16
77227;BME280;66234;47.642;19.144;2023-04-01T21:32:50;99191.06;;;9.30;72.15
77227;BME280;66234;47.642;19.144;2023-04-01T22:06:38;99206.81;;;9.02;72.89
77227;BME280;66234;47.642;19.144;2023-04-01T22:17:00;99206.97;;;8.64;74.62
77227;BME280;66234;47.642;19.144;2023-04-01T22:20:21;99208.19;;;9.04;71.17
77227;BME280;66234;47.642;19.144;2023-04-01T22:23:35;99208.31;;;8.91;72.05
77227;BME280;66234;47.642;19.144;2023-04-01T22:43:10;99226.84;;;8.86;71.91
77227;BME280;66234;47.642;19.144;2023-04-01T22:50:22;99235.38;;;8.52;74.40
77227;BME280;66234;47.642;19.144;2023-04-01T22:53:52;99239.00;;;8.33;75.83
77227;BME280;66234;47.642;19.144;2023-04-01T22:57:14;99238.50;;;8.18;76.85
77227;BME280;66234;47.642;19.144;2023-04-01T23:00:28;99245.34;;;8.07;76.73
77227;BME280;66234;47.642;19.144;2023-04-01T23:03:40;99252.75;;;7.99;77.21
77227;BME280;66234;47.642;19.144;2023-04-01T23:06:51;99257.03;;;8.00;76.36
77227;BME280;66234;47.642;19.144;2023-04-01T23:09:56;99261.56;;;7.99;75.78
77227;BME280;66234;47.642;19.144;2023-04-01T23:13:01;99260.44;;;8.45;73.42
77227;BME280;66234;47.642;19.144;2023-04-01T23:16:08;99264.53;;;8.90;71.84
77227;BME280;66234;47.642;19.144;2023-04-01T23:19:16;99273.00;;;9.05;71.04
77227;BME280;66234;47.642;19.144;2023-04-01T23:28:51;99286.84;;;9.67;68.55
77227;BME280;66234;47.642;19.144;2023-04-01T23:31:59;99269.94;;;9.73;68.17
77227;BME280;66234;47.642;19.144;2023-04-01T23:35:02;99274.91;;;9.70;68.69
77227;BME280;66234;47.642;19.144;2023-04-01T23:38:04;99283.34;;;9.67;68.87
77227;BME280;66234;47.642;19.144;2023-04-01T23:41:19;99287.91;;;9.66;68.67
77227;BME280;66234;47.642;19.144;2023-04-01T23:44:24;99291.47;;;9.60;69.09
77227;BME280;66234;47.642;19.144;2023-04-01T23:47:29;99289.03;;;9.59;69.12
77227;BME280;66234;47.642;19.144;2023-04-01T23:50:33;99289.69;;;9.54;69.52
77227;BME280;66234;47.642;19.144;2023-04-01T23:53:43;99294.44;;;9.52;69.68
77227;BME280;66234;47.642;19.144;2023-04-01T23:56:51;99285.66;;;9.45;70.19
